sensor_id;sensor_type;location;lat;lon;timestamp;P1;durP1;ratioP1;P2;durP2;ratioP2
39674;SDS011;27790;50.840;4.386;2022-11-13T00:03:42;25.33;;;15.82;;
39674;SDS011;27790;50.840;4.386;2022-11-13T00:06:09;25.67;;;16.63;;
39674;SDS011;27790;50.840;4.386;2022-11-13T00:08:35;27.73;;;16.30;;
39674;SDS011;27790;50.840;4.386;2022-11-13T00:11:06;26.02;;;18.63;;
39674;SDS011;27790;50.840;4.386;2022-11-13T00:13:36;28.77;;;18.13;;
39674;SDS011;27790;50.840;4.386;2022-11-13T00:16:04;29.58;;;17.58;;
39674;SDS011;27790;50.840;4.386;2022-11-13T00:18:35;27.23;;;17.05;;
39674;SDS011;27790;50.840;4.386;2022-11-13T00:21:05;26.38;;;17.80;;
39674;SDS011;27790;50.840;4.386;2022-11-13T00:23:38;31.10;;;17.23;;
39674;SDS011;27790;50.840;4.386;2022-11-13T00:26:11;31.42;;;18.05;;
39674;SDS011;27790;50.840;4.386;2022-11-13T00:28:39;30.35;;;17.17;;
39674;SDS011;27790;50.840;4.386;2022-11-13T00:31:05;25.13;;;16.88;;
39674;SDS011;27790;50.840;4.386;2022-11-13T00:33:31;24.10;;;16.48;;
39674;SDS011;27790;50.840;4.386;2022-11-13T00:36:04;29.73;;;18.23;;
39674;SDS011;27790;50.840;4.386;2022-11-13T00:38:31;33.10;;;21.63;;
39674;SDS011;27790;50.840;4.386;2022-11-13T00:40:57;35.40;;;22.35;;
39674;SDS011;27790;50.840;4.386;2022-11-13T00:43:23;25.98;;;18.55;;
39674;SDS011;27790;50.840;4.386;2022-11-13T00:45:49;29.40;;;17.77;;
39674;SDS011;27790;50.840;4.386;2022-11-13T00:48:16;28.02;;;17.73;;
39674;SDS011;27790;50.840;4.386;2022-11-13T00:50:41;25.95;;;17.63;;
39674;SDS011;27790;50.840;4.386;2022-11-13T00:53:07;28.13;;;17.98;;
39674;SDS011;27790;50.840;4.386;2022-11-13T00:55:33;23.48;;;16.98;;
39674;SDS011;27790;50.840;4.386;2022-11-13T00:57:58;24.98;;;16.85;;
39674;SDS011;27790;50.840;4.386;2022-11-13T01:00:24;25.75;;;17.52;;
39674;SDS011;27790;50.840;4.386;2022-11-13T01:02:49;23.60;;;16.95;;
39674;SDS011;27790;50.840;4.386;2022-11-13T01:05:15;21.48;;;15.35;;
39674;SDS011;27790;50.840;4.386;2022-11-13T01:07:40;25.17;;;15.70;;
39674;SDS011;27790;50.840;4.386;2022-11-13T01:10:06;22.98;;;15.70;;
39674;SDS011;27790;50.840;4.386;2022-11-13T01:12:32;21.52;;;15.65;;
39674;SDS011;27790;50.840;4.386;2022-11-13T01:14:58;23.52;;;16.02;;
39674;SDS011;27790;50.840;4.386;2022-11-13T01:17:24;22.77;;;16.58;;
39674;SDS011;27790;50.840;4.386;2022-11-13T01:19:50;19.55;;;13.65;;
39674;SDS011;27790;50.840;4.386;2022-11-13T01:22:15;22.52;;;16.52;;
39674;SDS011;27790;50.840;4.386;2022-11-13T01:24:41;27.00;;;16.33;;
39674;SDS011;27790;50.840;4.386;2022-11-13T01:27:07;21.20;;;15.63;;
39674;SDS011;27790;50.840;4.386;2022-11-13T01:29:32;23.42;;;15.18;;
39674;SDS011;27790;50.840;4.386;2022-11-13T01:31:58;19.75;;;15.02;;
39674;SDS011;27790;50.840;4.386;2022-11-13T01:34:23;23.75;;;16.10;;
39674;SDS011;27790;50.840;4.386;2022-11-13T01:36:50;20.70;;;14.25;;
39674;SDS011;27790;50.840;4.386;2022-11-13T01:39:15;18.45;;;14.05;;
39674;SDS011;27790;50.840;4.386;2022-11-13T01:41:41;17.73;;;11.75;;
39674;SDS011;27790;50.840;4.386;2022-11-13T01:44:11;14.70;;;11.07;;
39674;SDS011;27790;50.840;4.386;2022-11-13T01:46:49;16.67;;;11.82;;
39674;SDS011;27790;50.840;4.386;2022-11-13T01:52:01;13.35;;;10.65;;
39674;SDS011;27790;50.840;4.386;2022-11-13T01:54:50;17.52;;;12.38;;
39674;SDS011;27790;50.840;4.386;2022-11-13T01:57:19;17.40;;;11.15;;
39674;SDS011;27790;50.840;4.386;2022-11-13T01:59:49;16.52;;;11.73;;
39674;SDS011;27790;50.840;4.386;2022-11-13T02:04:44;18.73;;;11.85;;
39674;SDS011;27790;50.840;4.386;2022-11-13T02:07:11;13.75;;;10.85;;
39674;SDS011;27790;50.840;4.386;2022-11-13T02:09:40;16.13;;;11.30;;
39674;SDS011;27790;50.840;4.386;2022-11-13T02:12:12;13.55;;;10.30;;
39674;SDS011;27790;50.840;4.386;2022-11-13T02:14:40;18.52;;;11.02;;
39674;SDS011;27790;50.840;4.386;2022-11-13T02:17:08;13.70;;;10.93;;
39674;SDS011;27790;50.840;4.386;2022-11-13T02:19:42;16.05;;;11.85;;
39674;SDS011;27790;50.840;4.386;2022-11-13T02:24:43;13.23;;;10.07;;
39674;SDS011;27790;50.840;4.386;2022-11-13T02:27:12;15.55;;;10.93;;
39674;SDS011;27790;50.840;4.386;2022-11-13T02:29:50;15.98;;;11.05;;
39674;SDS011;27790;50.840;4.386;2022-11-13T02:32:16;14.15;;;11.10;;
39674;SDS011;27790;50.840;4.386;2022-11-13T02:34:41;17.95;;;10.90;;
39674;SDS011;27790;50.840;4.386;2022-11-13T02:37:07;14.38;;;9.77;;
39674;SDS011;27790;50.840;4.386;2022-11-13T02:39:32;18.30;;;11.20;;
39674;SDS011;27790;50.840;4.386;2022-11-13T02:41:58;15.57;;;9.88;;
39674;SDS011;27790;50.840;4.386;2022-11-13T02:44:24;13.05;;;9.57;;
39674;SDS011;27790;50.840;4.386;2022-11-13T02:46:49;11.48;;;8.75;;
39674;SDS011;27790;50.840;4.386;2022-11-13T02:49:15;14.35;;;10.05;;
39674;SDS011;27790;50.840;4.386;2022-11-13T02:51:40;14.02;;;10.02;;
39674;SDS011;27790;50.840;4.386;2022-11-13T02:54:06;16.20;;;9.43;;
39674;SDS011;27790;50.840;4.386;2022-11-13T02:56:32;11.38;;;8.38;;
39674;SDS011;27790;50.840;4.386;2022-11-13T02:58:57;9.80;;;7.90;;
39674;SDS011;27790;50.840;4.386;2022-11-13T03:01:23;10.18;;;8.10;;
39674;SDS011;27790;50.840;4.386;2022-11-13T03:03:48;12.02;;;7.97;;
39674;SDS011;27790;50.840;4.386;2022-11-13T03:06:14;9.85;;;8.13;;
39674;SDS011;27790;50.840;4.386;2022-11-13T03:08:39;10.43;;;7.72;;
39674;SDS011;27790;50.840;4.386;2022-11-13T03:11:06;9.20;;;7.32;;
39674;SDS011;27790;50.840;4.386;2022-11-13T03:13:34;7.43;;;6.70;;
39674;SDS011;27790;50.840;4.386;2022-11-13T03:16:33;10.98;;;7.78;;
39674;SDS011;27790;50.840;4.386;2022-11-13T03:18:51;13.80;;;7.85;;
39674;SDS011;27790;50.840;4.386;2022-11-13T03:21:18;9.95;;;7.40;;
39674;SDS011;27790;50.840;4.386;2022-11-13T03:23:44;12.25;;;7.50;;
39674;SDS011;27790;50.840;4.386;2022-11-13T03:26:12;9.52;;;7.38;;
39674;SDS011;27790;50.840;4.386;2022-11-13T03:28:39;8.25;;;7.18;;
39674;SDS011;27790;50.840;4.386;2022-11-13T03:31:05;11.27;;;7.35;;
39674;SDS011;27790;50.840;4.386;2022-11-13T03:33:30;9.02;;;6.82;;
39674;SDS011;27790;50.840;4.386;2022-11-13T03:35:56;8.98;;;6.80;;
39674;SDS011;27790;50.840;4.386;2022-11-13T03:38:23;10.25;;;7.75;;
39674;SDS011;27790;50.840;4.386;2022-11-13T03:40:48;10.15;;;6.97;;
39674;SDS011;27790;50.840;4.386;2022-11-13T03:43:14;10.63;;;6.88;;
39674;SDS011;27790;50.840;4.386;2022-11-13T03:45:40;8.25;;;6.40;;
39674;SDS011;27790;50.840;4.386;2022-11-13T03:48:08;9.48;;;7.78;;
39674;SDS011;27790;50.840;4.386;2022-11-13T03:50:33;10.23;;;6.78;;
39674;SDS011;27790;50.840;4.386;2022-11-13T03:52:59;8.27;;;6.95;;
39674;SDS011;27790;50.840;4.386;2022-11-13T03:55:24;11.30;;;8.50;;
39674;SDS011;27790;50.840;4.386;2022-11-13T03:57:50;11.80;;;9.05;;
39674;SDS011;27790;50.840;4.386;2022-11-13T04:00:15;21.42;;;12.82;;
39674;SDS011;27790;50.840;4.386;2022-11-13T04:02:41;15.30;;;8.50;;
39674;SDS011;27790;50.840;4.386;2022-11-13T04:05:07;12.95;;;8.98;;
39674;SDS011;27790;50.840;4.386;2022-11-13T04:07:33;13.57;;;8.75;;
39674;SDS011;27790;50.840;4.386;2022-11-13T04:09:58;14.70;;;8.90;;
39674;SDS011;27790;50.840;4.386;2022-11-13T04:12:24;15.77;;;9.95;;
39674;SDS011;27790;50.840;4.386;2022-11-13T04:14:50;15.23;;;9.48;;
39674;SDS011;27790;50.840;4.386;2022-11-13T04:17:15;14.68;;;10.63;;
39674;SDS011;27790;50.840;4.386;2022-11-13T04:19:41;15.45;;;9.48;;
39674;SDS011;27790;50.840;4.386;2022-11-13T04:22:06;15.93;;;10.52;;
39674;SDS011;27790;50.840;4.386;2022-11-13T04:24:32;11.20;;;8.65;;
39674;SDS011;27790;50.840;4.386;2022-11-13T04:26:58;15.35;;;10.73;;
39674;SDS011;27790;50.840;4.386;2022-11-13T04:29:23;16.35;;;11.93;;
39674;SDS011;27790;50.840;4.386;2022-11-13T04:31:49;20.30;;;11.90;;
39674;SDS011;27790;50.840;4.386;2022-11-13T04:34:14;18.88;;;11.70;;
39674;SDS011;27790;50.840;4.386;2022-11-13T04:36:40;18.50;;;11.55;;
39674;SDS011;27790;50.840;4.386;2022-11-13T04:39:06;18.73;;;10.70;;
39674;SDS011;27790;50.840;4.386;2022-11-13T04:41:32;22.92;;;11.85;;
39674;SDS011;27790;50.840;4.386;2022-11-13T04:44:07;17.85;;;12.13;;
39674;SDS011;27790;50.840;4.386;2022-11-13T04:46:33;19.80;;;13.18;;
39674;SDS011;27790;50.840;4.386;2022-11-13T04:48:59;16.67;;;12.40;;
39674;SDS011;27790;50.840;4.386;2022-11-13T04:51:24;18.48;;;12.07;;
39674;SDS011;27790;50.840;4.386;2022-11-13T04:53:50;18.80;;;11.35;;
39674;SDS011;27790;50.840;4.386;2022-11-13T04:56:15;17.55;;;12.38;;
39674;SDS011;27790;50.840;4.386;2022-11-13T04:58:41;19.70;;;12.60;;
39674;SDS011;27790;50.840;4.386;2022-11-13T05:01:06;20.65;;;11.82;;
39674;SDS011;27790;50.840;4.386;2022-11-13T05:03:32;23.75;;;14.32;;
39674;SDS011;27790;50.840;4.386;2022-11-13T05:06:01;19.50;;;12.70;;
39674;SDS011;27790;50.840;4.386;2022-11-13T05:08:32;22.90;;;13.73;;
39674;SDS011;27790;50.840;4.386;2022-11-13T05:10:58;17.60;;;12.63;;
39674;SDS011;27790;50.840;4.386;2022-11-13T05:13:24;17.63;;;12.63;;
39674;SDS011;27790;50.840;4.386;2022-11-13T05:15:49;21.70;;;13.20;;
39674;SDS011;27790;50.840;4.386;2022-11-13T05:18:16;22.83;;;14.18;;
39674;SDS011;27790;50.840;4.386;2022-11-13T05:20:42;21.48;;;13.18;;
39674;SDS011;27790;50.840;4.386;2022-11-13T05:23:07;19.65;;;12.18;;
39674;SDS011;27790;50.840;4.386;2022-11-13T05:25:33;21.58;;;12.73;;
39674;SDS011;27790;50.840;4.386;2022-11-13T05:27:58;19.33;;;13.38;;
39674;SDS011;27790;50.840;4.386;2022-11-13T05:30:24;21.58;;;14.43;;
39674;SDS011;27790;50.840;4.386;2022-11-13T05:32:50;20.75;;;13.20;;
39674;SDS011;27790;50.840;4.386;2022-11-13T05:35:16;22.55;;;12.65;;
39674;SDS011;27790;50.840;4.386;2022-11-13T05:37:42;19.60;;;13.13;;
39674;SDS011;27790;50.840;4.386;2022-11-13T05:40:07;21.00;;;13.75;;
39674;SDS011;27790;50.840;4.386;2022-11-13T05:42:33;23.63;;;14.68;;
39674;SDS011;27790;50.840;4.386;2022-11-13T05:44:59;20.48;;;13.55;;
39674;SDS011;27790;50.840;4.386;2022-11-13T05:47:25;23.35;;;14.77;;
39674;SDS011;27790;50.840;4.386;2022-11-13T05:49:50;24.80;;;13.55;;
39674;SDS011;27790;50.840;4.386;2022-11-13T05:52:16;25.83;;;15.13;;
39674;SDS011;27790;50.840;4.386;2022-11-13T05:54:41;25.15;;;14.68;;
39674;SDS011;27790;50.840;4.386;2022-11-13T05:57:07;19.98;;;13.80;;
39674;SDS011;27790;50.840;4.386;2022-11-13T05:59:32;22.02;;;14.15;;
39674;SDS011;27790;50.840;4.386;2022-11-13T06:01:58;18.70;;;13.25;;
39674;SDS011;27790;50.840;4.386;2022-11-13T06:04:24;19.50;;;13.73;;
39674;SDS011;27790;50.840;4.386;2022-11-13T06:06:49;23.50;;;14.23;;
39674;SDS011;27790;50.840;4.386;2022-11-13T06:09:16;22.25;;;13.70;;
39674;SDS011;27790;50.840;4.386;2022-11-13T06:11:42;21.73;;;13.82;;
39674;SDS011;27790;50.840;4.386;2022-11-13T06:14:08;23.05;;;13.82;;
39674;SDS011;27790;50.840;4.386;2022-11-13T06:16:35;18.35;;;13.35;;
39674;SDS011;27790;50.840;4.386;2022-11-13T06:19:03;20.10;;;13.00;;
39674;SDS011;27790;50.840;4.386;2022-11-13T06:21:31;18.50;;;12.70;;
39674;SDS011;27790;50.840;4.386;2022-11-13T06:23:59;20.33;;;12.70;;
39674;SDS011;27790;50.840;4.386;2022-11-13T06:26:26;18.38;;;12.30;;
39674;SDS011;27790;50.840;4.386;2022-11-13T06:28:57;17.15;;;10.68;;
39674;SDS011;27790;50.840;4.386;2022-11-13T06:31:24;15.20;;;10.45;;
39674;SDS011;27790;50.840;4.386;2022-11-13T06:33:51;12.38;;;9.82;;
39674;SDS011;27790;50.840;4.386;2022-11-13T06:36:18;14.88;;;10.02;;
39674;SDS011;27790;50.840;4.386;2022-11-13T06:38:48;12.40;;;8.77;;
39674;SDS011;27790;50.840;4.386;2022-11-13T06:41:15;11.00;;;8.85;;
39674;SDS011;27790;50.840;4.386;2022-11-13T06:43:42;22.90;;;10.98;;
39674;SDS011;27790;50.840;4.386;2022-11-13T06:46:12;13.45;;;9.35;;
39674;SDS011;27790;50.840;4.386;2022-11-13T06:48:40;14.95;;;9.98;;
39674;SDS011;27790;50.840;4.386;2022-11-13T06:51:08;15.05;;;9.85;;
39674;SDS011;27790;50.840;4.386;2022-11-13T06:53:36;15.35;;;9.10;;
39674;SDS011;27790;50.840;4.386;2022-11-13T06:56:03;12.10;;;9.27;;
39674;SDS011;27790;50.840;4.386;2022-11-13T06:58:30;12.63;;;9.13;;
39674;SDS011;27790;50.840;4.386;2022-11-13T07:00:56;14.82;;;10.00;;
39674;SDS011;27790;50.840;4.386;2022-11-13T07:03:24;14.73;;;9.45;;
39674;SDS011;27790;50.840;4.386;2022-11-13T07:05:51;11.23;;;8.88;;
39674;SDS011;27790;50.840;4.386;2022-11-13T07:08:17;12.32;;;7.88;;
39674;SDS011;27790;50.840;4.386;2022-11-13T07:10:43;13.77;;;8.80;;
39674;SDS011;27790;50.840;4.386;2022-11-13T07:15:41;12.48;;;8.05;;
39674;SDS011;27790;50.840;4.386;2022-11-13T07:18:07;12.80;;;7.60;;
39674;SDS011;27790;50.840;4.386;2022-11-13T07:20:32;9.65;;;8.10;;
39674;SDS011;27790;50.840;4.386;2022-11-13T07:22:59;11.60;;;7.45;;
39674;SDS011;27790;50.840;4.386;2022-11-13T07:25:27;14.10;;;9.23;;
39674;SDS011;27790;50.840;4.386;2022-11-13T07:27:53;10.32;;;7.90;;
39674;SDS011;27790;50.840;4.386;2022-11-13T07:30:19;15.75;;;8.13;;
39674;SDS011;27790;50.840;4.386;2022-11-13T07:32:45;12.18;;;8.05;;
39674;SDS011;27790;50.840;4.386;2022-11-13T07:35:10;11.88;;;8.57;;
39674;SDS011;27790;50.840;4.386;2022-11-13T07:37:36;13.02;;;8.90;;
39674;SDS011;27790;50.840;4.386;2022-11-13T07:40:02;11.00;;;8.45;;
39674;SDS011;27790;50.840;4.386;2022-11-13T07:42:29;11.68;;;8.43;;
39674;SDS011;27790;50.840;4.386;2022-11-13T07:44:54;15.07;;;8.65;;
39674;SDS011;27790;50.840;4.386;2022-11-13T07:47:20;12.85;;;9.13;;
39674;SDS011;27790;50.840;4.386;2022-11-13T07:49:46;12.02;;;8.85;;
39674;SDS011;27790;50.840;4.386;2022-11-13T07:52:11;10.73;;;7.82;;
39674;SDS011;27790;50.840;4.386;2022-11-13T07:54:37;12.70;;;7.45;;
39674;SDS011;27790;50.840;4.386;2022-11-13T07:57:02;10.27;;;7.53;;
39674;SDS011;27790;50.840;4.386;2022-11-13T07:59:28;9.90;;;6.50;;
39674;SDS011;27790;50.840;4.386;2022-11-13T08:01:53;10.30;;;7.63;;
39674;SDS011;27790;50.840;4.386;2022-11-13T08:04:19;11.30;;;7.80;;
39674;SDS011;27790;50.840;4.386;2022-11-13T08:06:45;15.35;;;9.07;;
39674;SDS011;27790;50.840;4.386;2022-11-13T08:09:10;10.00;;;7.65;;
39674;SDS011;27790;50.840;4.386;2022-11-13T08:11:36;9.55;;;7.00;;
39674;SDS011;27790;50.840;4.386;2022-11-13T08:14:02;9.98;;;7.22;;
39674;SDS011;27790;50.840;4.386;2022-11-13T08:16:27;10.85;;;7.07;;
39674;SDS011;27790;50.840;4.386;2022-11-13T08:18:53;14.45;;;7.78;;
39674;SDS011;27790;50.840;4.386;2022-11-13T08:21:18;10.10;;;7.60;;
39674;SDS011;27790;50.840;4.386;2022-11-13T08:23:45;11.07;;;7.88;;
39674;SDS011;27790;50.840;4.386;2022-11-13T08:26:10;11.73;;;7.15;;
39674;SDS011;27790;50.840;4.386;2022-11-13T08:28:36;10.23;;;8.18;;
39674;SDS011;27790;50.840;4.386;2022-11-13T08:31:02;10.43;;;7.80;;
39674;SDS011;27790;50.840;4.386;2022-11-13T08:33:28;11.98;;;7.70;;
39674;SDS011;27790;50.840;4.386;2022-11-13T08:35:55;13.82;;;7.93;;
39674;SDS011;27790;50.840;4.386;2022-11-13T08:38:22;12.60;;;8.13;;
39674;SDS011;27790;50.840;4.386;2022-11-13T08:40:48;10.25;;;7.90;;
39674;SDS011;27790;50.840;4.386;2022-11-13T08:43:14;11.93;;;8.13;;
39674;SDS011;27790;50.840;4.386;2022-11-13T08:45:40;11.45;;;7.82;;
39674;SDS011;27790;50.840;4.386;2022-11-13T08:48:06;12.57;;;8.25;;
39674;SDS011;27790;50.840;4.386;2022-11-13T08:50:32;9.77;;;7.75;;
39674;SDS011;27790;50.840;4.386;2022-11-13T08:52:58;11.43;;;8.95;;
39674;SDS011;27790;50.840;4.386;2022-11-13T08:55:25;14.63;;;8.82;;
39674;SDS011;27790;50.840;4.386;2022-11-13T08:57:51;12.05;;;8.10;;
39674;SDS011;27790;50.840;4.386;2022-11-13T09:00:18;11.82;;;8.65;;
39674;SDS011;27790;50.840;4.386;2022-11-13T09:02:44;12.68;;;9.07;;
39674;SDS011;27790;50.840;4.386;2022-11-13T09:05:10;13.07;;;8.93;;
39674;SDS011;27790;50.840;4.386;2022-11-13T09:07:36;12.85;;;9.07;;
39674;SDS011;27790;50.840;4.386;2022-11-13T09:10:01;15.38;;;9.27;;
39674;SDS011;27790;50.840;4.386;2022-11-13T09:12:27;10.90;;;7.68;;
39674;SDS011;27790;50.840;4.386;2022-11-13T09:14:53;7.90;;;6.75;;
39674;SDS011;27790;50.840;4.386;2022-11-13T09:17:19;10.00;;;6.15;;
39674;SDS011;27790;50.840;4.386;2022-11-13T09:19:44;11.32;;;7.28;;
39674;SDS011;27790;50.840;4.386;2022-11-13T09:22:10;9.93;;;6.68;;
39674;SDS011;27790;50.840;4.386;2022-11-13T09:24:36;10.00;;;7.65;;
39674;SDS011;27790;50.840;4.386;2022-11-13T09:27:02;8.60;;;6.78;;
39674;SDS011;27790;50.840;4.386;2022-11-13T09:29:27;10.35;;;7.38;;
39674;SDS011;27790;50.840;4.386;2022-11-13T09:31:53;9.48;;;7.05;;
39674;SDS011;27790;50.840;4.386;2022-11-13T09:34:19;11.15;;;7.35;;
39674;SDS011;27790;50.840;4.386;2022-11-13T09:36:45;12.52;;;7.45;;
39674;SDS011;27790;50.840;4.386;2022-11-13T09:39:11;10.93;;;7.55;;
39674;SDS011;27790;50.840;4.386;2022-11-13T09:41:38;11.63;;;7.40;;
39674;SDS011;27790;50.840;4.386;2022-11-13T09:49:34;10.32;;;6.88;;
39674;SDS011;27790;50.840;4.386;2022-11-13T09:52:15;10.82;;;6.10;;
39674;SDS011;27790;50.840;4.386;2022-11-13T09:54:49;10.13;;;7.20;;
39674;SDS011;27790;50.840;4.386;2022-11-13T09:57:24;8.45;;;6.75;;
39674;SDS011;27790;50.840;4.386;2022-11-13T10:05:12;10.15;;;6.57;;
39674;SDS011;27790;50.840;4.386;2022-11-13T10:12:57;10.43;;;6.75;;
39674;SDS011;27790;50.840;4.386;2022-11-13T10:15:25;8.38;;;6.18;;
39674;SDS011;27790;50.840;4.386;2022-11-13T10:21:12;13.43;;;5.68;;
39674;SDS011;27790;50.840;4.386;2022-11-13T10:23:21;7.40;;;6.03;;
39674;SDS011;27790;50.840;4.386;2022-11-13T10:25:50;8.85;;;6.10;;
39674;SDS011;27790;50.840;4.386;2022-11-13T10:28:22;6.68;;;5.82;;
39674;SDS011;27790;50.840;4.386;2022-11-13T10:30:50;9.40;;;6.13;;
39674;SDS011;27790;50.840;4.386;2022-11-13T10:33:16;6.55;;;5.82;;
39674;SDS011;27790;50.840;4.386;2022-11-13T10:38:22;8.90;;;6.30;;
39674;SDS011;27790;50.840;4.386;2022-11-13T10:41:03;7.35;;;5.88;;
39674;SDS011;27790;50.840;4.386;2022-11-13T10:43:35;5.18;;;4.68;;
39674;SDS011;27790;50.840;4.386;2022-11-13T10:46:02;8.02;;;5.20;;
39674;SDS011;27790;50.840;4.386;2022-11-13T10:48:30;7.75;;;5.72;;
39674;SDS011;27790;50.840;4.386;2022-11-13T10:50:59;10.75;;;6.82;;
39674;SDS011;27790;50.840;4.386;2022-11-13T10:53:25;6.32;;;5.65;;
39674;SDS011;27790;50.840;4.386;2022-11-13T10:55:56;6.38;;;5.68;;
39674;SDS011;27790;50.840;4.386;2022-11-13T10:58:21;7.28;;;5.75;;
39674;SDS011;27790;50.840;4.386;2022-11-13T11:00:47;9.20;;;5.28;;
39674;SDS011;27790;50.840;4.386;2022-11-13T11:03:20;8.65;;;4.82;;
39674;SDS011;27790;50.840;4.386;2022-11-13T11:05:51;6.18;;;4.95;;
39674;SDS011;27790;50.840;4.386;2022-11-13T11:08:25;5.53;;;4.90;;
39674;SDS011;27790;50.840;4.386;2022-11-13T11:11:00;5.55;;;5.05;;
39674;SDS011;27790;50.840;4.386;2022-11-13T11:13:49;6.20;;;4.22;;
39674;SDS011;27790;50.840;4.386;2022-11-13T11:16:19;6.25;;;4.72;;
39674;SDS011;27790;50.840;4.386;2022-11-13T11:18:59;6.82;;;4.50;;
39674;SDS011;27790;50.840;4.386;2022-11-13T11:21:29;6.03;;;5.00;;
39674;SDS011;27790;50.840;4.386;2022-11-13T11:24:20;4.97;;;4.47;;
39674;SDS011;27790;50.840;4.386;2022-11-13T11:37:16;8.18;;;5.18;;
39674;SDS011;27790;50.840;4.386;2022-11-13T11:47:32;3.85;;;3.50;;
39674;SDS011;27790;50.840;4.386;2022-11-13T11:49:58;4.50;;;3.83;;
39674;SDS011;27790;50.840;4.386;2022-11-13T11:57:33;3.83;;;3.42;;
39674;SDS011;27790;50.840;4.386;2022-11-13T12:00:17;4.13;;;3.72;;
39674;SDS011;27790;50.840;4.386;2022-11-13T12:06:05;4.30;;;3.50;;
39674;SDS011;27790;50.840;4.386;2022-11-13T12:11:31;3.83;;;2.78;;
39674;SDS011;27790;50.840;4.386;2022-11-13T12:35:07;4.65;;;2.53;;
39674;SDS011;27790;50.840;4.386;2022-11-13T12:37:50;3.83;;;2.72;;
39674;SDS011;27790;50.840;4.386;2022-11-13T12:40:30;3.17;;;2.58;;
39674;SDS011;27790;50.840;4.386;2022-11-13T12:45:52;3.47;;;2.70;;
39674;SDS011;27790;50.840;4.386;2022-11-13T12:48:21;3.45;;;3.00;;
39674;SDS011;27790;50.840;4.386;2022-11-13T12:51:04;3.20;;;2.90;;
39674;SDS011;27790;50.840;4.386;2022-11-13T12:53:53;4.15;;;2.75;;
39674;SDS011;27790;50.840;4.386;2022-11-13T12:58:56;3.63;;;3.05;;
39674;SDS011;27790;50.840;4.386;2022-11-13T13:01:29;3.05;;;2.75;;
39674;SDS011;27790;50.840;4.386;2022-11-13T13:17:25;2.90;;;2.58;;
39674;SDS011;27790;50.840;4.386;2022-11-13T13:22:31;4.72;;;3.00;;
39674;SDS011;27790;50.840;4.386;2022-11-13T13:27:55;2.72;;;2.22;;
39674;SDS011;27790;50.840;4.386;2022-11-13T13:30:23;4.05;;;2.70;;
39674;SDS011;27790;50.840;4.386;2022-11-13T13:38:31;2.50;;;2.30;;
39674;SDS011;27790;50.840;4.386;2022-11-13T13:46:33;3.08;;;2.47;;
39674;SDS011;27790;50.840;4.386;2022-11-13T13:49:03;4.05;;;2.88;;
39674;SDS011;27790;50.840;4.386;2022-11-13T13:51:43;4.57;;;2.45;;
39674;SDS011;27790;50.840;4.386;2022-11-13T13:54:15;3.15;;;2.85;;
39674;SDS011;27790;50.840;4.386;2022-11-13T13:56:50;3.20;;;2.65;;
39674;SDS011;27790;50.840;4.386;2022-11-13T13:59:22;6.85;;;2.40;;
39674;SDS011;27790;50.840;4.386;2022-11-13T14:02:00;3.60;;;2.15;;
39674;SDS011;27790;50.840;4.386;2022-11-13T14:04:28;2.53;;;2.33;;
39674;SDS011;27790;50.840;4.386;2022-11-13T14:06:59;2.80;;;2.25;;
39674;SDS011;27790;50.840;4.386;2022-11-13T14:09:27;3.33;;;2.25;;
39674;SDS011;27790;50.840;4.386;2022-11-13T14:14:23;2.70;;;2.50;;
39674;SDS011;27790;50.840;4.386;2022-11-13T14:16:49;1.95;;;1.80;;
39674;SDS011;27790;50.840;4.386;2022-11-13T14:19:16;7.63;;;2.65;;
39674;SDS011;27790;50.840;4.386;2022-11-13T14:21:43;2.17;;;1.98;;
39674;SDS011;27790;50.840;4.386;2022-11-13T14:24:55;2.20;;;2.00;;
39674;SDS011;27790;50.840;4.386;2022-11-13T14:27:13;3.28;;;2.35;;
39674;SDS011;27790;50.840;4.386;2022-11-13T14:29:44;2.23;;;2.03;;
39674;SDS011;27790;50.840;4.386;2022-11-13T14:32:16;2.70;;;2.50;;
39674;SDS011;27790;50.840;4.386;2022-11-13T14:34:43;2.53;;;2.05;;
39674;SDS011;27790;50.840;4.386;2022-11-13T14:37:17;6.85;;;2.40;;
39674;SDS011;27790;50.840;4.386;2022-11-13T14:39:57;2.03;;;1.90;;
39674;SDS011;27790;50.840;4.386;2022-11-13T14:42:27;3.15;;;2.33;;
39674;SDS011;27790;50.840;4.386;2022-11-13T14:47:41;3.42;;;2.00;;
39674;SDS011;27790;50.840;4.386;2022-11-13T14:52:38;3.53;;;2.28;;
39674;SDS011;27790;50.840;4.386;2022-11-13T14:55:04;2.72;;;1.88;;
39674;SDS011;27790;50.840;4.386;2022-11-13T14:57:31;2.33;;;2.13;;
39674;SDS011;27790;50.840;4.386;2022-11-13T15:00:08;2.33;;;2.05;;
39674;SDS011;27790;50.840;4.386;2022-11-13T15:02:39;3.85;;;2.28;;
39674;SDS011;27790;50.840;4.386;2022-11-13T15:05:05;2.92;;;2.38;;
39674;SDS011;27790;50.840;4.386;2022-11-13T15:07:31;5.05;;;2.38;;
39674;SDS011;27790;50.840;4.386;2022-11-13T15:09:58;2.60;;;2.35;;
39674;SDS011;27790;50.840;4.386;2022-11-13T15:12:25;2.92;;;2.45;;
39674;SDS011;27790;50.840;4.386;2022-11-13T15:14:50;5.20;;;2.60;;
39674;SDS011;27790;50.840;4.386;2022-11-13T15:17:16;3.90;;;3.13;;
39674;SDS011;27790;50.840;4.386;2022-11-13T15:19:44;8.27;;;2.85;;
39674;SDS011;27790;50.840;4.386;2022-11-13T15:22:12;3.17;;;2.85;;
39674;SDS011;27790;50.840;4.386;2022-11-13T15:24:39;3.42;;;3.13;;
39674;SDS011;27790;50.840;4.386;2022-11-13T15:27:05;5.28;;;3.75;;
39674;SDS011;27790;50.840;4.386;2022-11-13T15:29:33;4.57;;;3.08;;
39674;SDS011;27790;50.840;4.386;2022-11-13T15:31:58;4.22;;;3.17;;
39674;SDS011;27790;50.840;4.386;2022-11-13T15:34:24;6.55;;;3.75;;
39674;SDS011;27790;50.840;4.386;2022-11-13T15:36:49;4.55;;;3.35;;
39674;SDS011;27790;50.840;4.386;2022-11-13T15:39:15;6.97;;;3.70;;
39674;SDS011;27790;50.840;4.386;2022-11-13T15:41:42;3.80;;;3.35;;
39674;SDS011;27790;50.840;4.386;2022-11-13T15:44:12;4.80;;;3.28;;
39674;SDS011;27790;50.840;4.386;2022-11-13T15:46:38;4.82;;;3.80;;
39674;SDS011;27790;50.840;4.386;2022-11-13T15:49:04;6.63;;;3.70;;
39674;SDS011;27790;50.840;4.386;2022-11-13T15:54:15;3.92;;;3.17;;
39674;SDS011;27790;50.840;4.386;2022-11-13T15:56:50;4.82;;;3.80;;
39674;SDS011;27790;50.840;4.386;2022-11-13T15:59:16;6.60;;;3.80;;
39674;SDS011;27790;50.840;4.386;2022-11-13T16:01:41;5.93;;;4.00;;
39674;SDS011;27790;50.840;4.386;2022-11-13T16:04:07;7.35;;;4.60;;
39674;SDS011;27790;50.840;4.386;2022-11-13T16:06:33;5.05;;;4.10;;
39674;SDS011;27790;50.840;4.386;2022-11-13T16:09:00;4.25;;;3.60;;
39674;SDS011;27790;50.840;4.386;2022-11-13T16:11:28;7.88;;;3.85;;
39674;SDS011;27790;50.840;4.386;2022-11-13T16:13:56;8.27;;;4.57;;
39674;SDS011;27790;50.840;4.386;2022-11-13T16:16:22;6.20;;;4.13;;
39674;SDS011;27790;50.840;4.386;2022-11-13T16:18:54;7.05;;;5.18;;
39674;SDS011;27790;50.840;4.386;2022-11-13T16:21:20;6.05;;;4.82;;
39674;SDS011;27790;50.840;4.386;2022-11-13T16:23:45;6.28;;;4.53;;
39674;SDS011;27790;50.840;4.386;2022-11-13T16:26:17;7.68;;;5.03;;
39674;SDS011;27790;50.840;4.386;2022-11-13T16:28:44;7.10;;;4.95;;
39674;SDS011;27790;50.840;4.386;2022-11-13T16:31:10;6.72;;;4.90;;
39674;SDS011;27790;50.840;4.386;2022-11-13T16:33:35;7.65;;;4.97;;
39674;SDS011;27790;50.840;4.386;2022-11-13T16:36:01;8.63;;;5.60;;
39674;SDS011;27790;50.840;4.386;2022-11-13T16:38:27;7.18;;;5.75;;
39674;SDS011;27790;50.840;4.386;2022-11-13T16:40:53;7.88;;;6.38;;
39674;SDS011;27790;50.840;4.386;2022-11-13T16:43:18;9.23;;;5.63;;
39674;SDS011;27790;50.840;4.386;2022-11-13T16:45:44;8.20;;;6.30;;
39674;SDS011;27790;50.840;4.386;2022-11-13T16:48:13;7.53;;;4.95;;
39674;SDS011;27790;50.840;4.386;2022-11-13T16:50:40;7.88;;;5.75;;